Time;durP1;ratioP1;P1;durP2;ratioP2;P2;SDS_P1;SDS_P2;PMS_P1;PMS_P2;Temp;Humidity;BMP_temperature;BMP_pressure;BME280_temperature;BME280_humidity;BME280_pressure;Samples;Min_cycle;Max_cycle;Signal;HPM_P1;HPM_P2
2022/12/20 00:00:09;;;;;;;10.88;5.88;;;;;;;-2.16;72.34;100631.69;5013650;28;20487;-69
2022/12/20 00:02:34;;;;;;;9.93;5.70;;;;;;;-1.95;73.56;100639.41;5017955;28;20131;-71
2022/12/20 00:04:58;;;;;;;10.75;6.35;;;;;;;-1.94;73.82;100648.13;5018171;28;20131;-71
2022/12/20 00:07:23;;;;;;;13.77;5.60;;;;;;;-1.96;73.28;100652.47;5001202;28;20036;-70
2022/12/20 00:09:48;;;;;;;9.52;5.88;;;;;;;-2.13;72.56;100646.44;5001579;28;20535;-74
2022/12/20 00:12:12;;;;;;;8.02;5.28;;;;;;;-2.05;72.84;100640.34;5009294;28;20107;-72
2022/12/20 00:14:37;;;;;;;10.73;5.50;;;;;;;-2.01;72.76;100625.50;5013028;28;20448;-70
2022/12/20 00:17:02;;;;;;;8.43;5.15;;;;;;;-2.12;72.42;100642.97;5032923;28;20048;-70
2022/12/20 00:19:26;;;;;;;12.90;5.80;;;;;;;-2.31;72.52;100642.16;5033022;28;20090;-69
2022/12/20 00:21:51;;;;;;;7.03;4.15;;;;;;;-2.22;72.99;100639.53;5035411;28;20561;-69
2022/12/20 00:24:15;;;;;;;6.93;3.92;;;;;;;-2.14;72.97;100629.91;5016993;28;20121;-71
2022/12/20 00:26:40;;;;;;;7.07;4.93;;;;;;;-2.00;73.35;100625.50;5004124;28;20043;-71
2022/12/20 00:29:05;;;;;;;6.78;3.97;;;;;;;-1.98;72.90;100621.13;5035537;28;20102;-70
2022/12/20 00:31:30;;;;;;;8.43;4.57;;;;;;;-2.26;72.63;100637.81;5017282;28;20110;-68
2022/12/20 00:33:57;;;;;;;8.85;4.60;;;;;;;-1.99;74.14;100626.34;5000925;28;20044;-69
2022/12/20 00:36:24;;;;;;;6.57;4.07;;;;;;;-2.10;73.18;100628.16;5001070;28;20474;-69
2022/12/20 00:38:52;;;;;;;8.90;3.85;;;;;;;-1.97;73.06;100622.88;4998653;28;20765;-70
2022/12/20 00:41:19;;;;;;;8.05;4.30;;;;;;;-1.95;73.04;100605.44;5001475;28;20056;-71
2022/12/20 00:43:43;;;;;;;8.23;4.63;;;;;;;-2.17;71.29;100609.03;5005407;28;20047;-66
2022/12/20 00:46:10;;;;;;;8.70;4.88;;;;;;;-2.10;71.95;100604.63;4988829;28;20028;-66
2022/12/20 00:48:35;;;;;;;6.65;4.43;;;;;;;-2.30;71.92;100602.13;5020417;28;20128;-67
2022/12/20 00:51:05;;;;;;;5.75;3.60;;;;;;;-2.23;72.61;100604.69;4998971;28;20132;-70
2022/12/20 00:53:30;;;;;;;8.38;4.90;;;;;;;-2.31;71.80;100613.44;5001129;28;20047;-69
2022/12/20 00:55:55;;;;;;;11.13;4.88;;;;;;;-2.33;72.29;100594.28;5020755;28;20095;-70
2022/12/20 00:58:20;;;;;;;5.97;3.70;;;;;;;-2.27;72.27;100594.28;4983610;28;20068;-69
2022/12/20 01:00:45;;;;;;;8.52;4.55;;;;;;;-2.20;73.05;100583.78;5034832;28;20044;-70
2022/12/20 01:03:10;;;;;;;6.65;4.13;;;;;;;-2.16;72.20;100583.78;5035129;28;20052;-69
2022/12/20 01:05:34;;;;;;;8.43;4.90;;;;;;;-2.23;72.05;100604.69;5016733;28;20051;-67
2022/12/20 01:07:59;;;;;;;6.60;4.57;;;;;;;-2.12;73.67;100583.75;5035460;28;20076;-64
2022/12/20 01:10:24;;;;;;;8.60;4.68;;;;;;;-2.09;73.69;100582.88;5033555;28;20043;-68
2022/12/20 01:12:49;;;;;;;5.47;3.40;;;;;;;-1.94;74.57;100581.06;5016732;28;20036;-67
2022/12/20 01:15:14;;;;;;;8.80;5.38;;;;;;;-2.27;72.31;100578.63;4977971;28;20037;-68
2022/12/20 01:17:39;;;;;;;9.95;5.50;;;;;;;-2.35;72.49;100565.56;5011233;28;20498;-69
2022/12/20 01:20:05;;;;;;;7.65;4.50;;;;;;;-2.44;72.25;100568.22;5035064;28;20067;-66
2022/12/20 01:22:30;;;;;;;8.48;5.15;;;;;;;-2.63;72.85;100567.44;5035324;28;20047;-66
2022/12/20 01:24:54;;;;;;;8.73;4.88;;;;;;;-2.63;73.02;100564.84;5011543;28;20033;-67
2022/12/20 01:27:19;;;;;;;8.63;4.47;;;;;;;-2.65;73.62;100553.53;5025874;28;20040;-67
2022/12/20 01:29:43;;;;;;;8.20;5.05;;;;;;;-2.76;72.82;100544.00;5034690;28;20040;-67
2022/12/20 01:32:08;;;;;;;9.45;5.30;;;;;;;-2.45;74.06;100549.97;5001088;28;20056;-66
2022/12/20 01:34:33;;;;;;;7.68;4.70;;;;;;;-2.51;72.94;100544.78;5011576;28;20406;-74
2022/12/20 01:36:57;;;;;;;9.07;5.68;;;;;;;-2.63;72.77;100536.13;5035079;28;20049;-73
2022/12/20 01:39:22;;;;;;;12.25;5.55;;;;;;;-2.67;72.41;100541.34;5000908;28;20068;-73
2022/12/20 01:41:48;;;;;;;13.05;5.60;;;;;;;-2.64;72.59;100531.78;5014383;28;20071;-73
2022/12/20 01:44:16;;;;;;;13.27;5.97;;;;;;;-2.82;72.41;100537.03;5032665;28;20051;-73
2022/12/20 01:46:40;;;;;;;8.50;5.47;;;;;;;-2.79;72.39;100533.56;5041474;28;20052;-73
2022/12/20 01:49:15;;;;;;;9.60;5.63;;;;;;;-2.73;72.66;100529.19;5023907;28;20122;-84
2022/12/20 01:51:44;;;;;;;8.98;5.35;;;;;;;-2.80;71.95;100530.06;5018361;28;20044;-74
2022/12/20 01:54:18;;;;;;;9.68;5.45;;;;;;;-2.63;72.53;100543.94;5002604;28;20051;-72
2022/12/20 01:56:48;;;;;;;9.95;5.47;;;;;;;-2.49;73.65;100536.06;5029843;28;20055;-71
2022/12/20 01:59:13;;;;;;;11.18;6.03;;;;;;;-2.52;73.52;100541.28;4996974;28;20052;-71
2022/12/20 02:01:37;;;;;;;7.20;4.90;;;;;;;-2.52;72.32;100548.25;5017588;28;20044;-73
2022/12/20 02:04:02;;;;;;;11.93;5.88;;;;;;;-2.61;71.88;100544.81;4969626;28;20052;-72
2022/12/20 02:06:27;;;;;;;9.05;5.50;;;;;;;-2.70;71.19;100528.31;4996236;28;20048;-72
2022/12/20 02:08:58;;;;;;;10.38;5.97;;;;;;;-2.76;71.71;100534.44;4980133;28;20121;-72
2022/12/20 02:11:44;;;;;;;11.63;6.05;;;;;;;-2.69;71.73;100523.09;4995677;28;20040;-73
2022/12/20 02:14:27;;;;;;;11.65;6.25;;;;;;;-2.71;71.33;100527.44;5011940;28;20044;-71
2022/12/20 02:17:29;;;;;;;10.18;5.97;;;;;;;-2.94;70.73;100531.88;5002602;28;20068;-78
2022/12/20 02:20:15;;;;;;;11.65;6.97;;;;;;;-2.85;71.16;100523.16;4999085;28;20056;-77
2022/12/20 02:23:07;;;;;;;9.75;6.72;;;;;;;-2.76;71.36;100525.72;5034774;28;20045;-74
2022/12/20 02:25:54;;;;;;;12.70;7.10;;;;;;;-3.13;69.55;100520.59;5017069;28;20052;-76
2022/12/20 02:28:46;;;;;;;11.68;5.97;;;;;;;-2.98;70.56;100525.78;5033485;28;20045;-73
2022/12/20 02:31:16;;;;;;;10.15;5.68;;;;;;;-3.17;70.48;100518.03;5017466;28;20052;-71
2022/12/20 02:33:45;;;;;;;10.85;6.00;;;;;;;-3.25;70.48;100511.94;5034495;28;20127;-72
2022/12/20 02:36:09;;;;;;;11.65;5.90;;;;;;;-3.08;71.39;100515.41;4990723;28;20419;-72
2022/12/20 02:38:37;;;;;;;12.27;6.63;;;;;;;-3.07;70.66;100518.00;5028717;28;20750;-73
2022/12/20 02:41:15;;;;;;;11.43;5.45;;;;;;;-2.98;70.89;100504.06;5008960;28;20044;-71
2022/12/20 02:46:26;;;;;;;13.25;6.13;;;;;;;-3.20;70.16;100505.84;5020641;28;20041;-72
2022/12/20 02:48:57;;;;;;;14.00;7.72;;;;;;;-3.34;69.33;100487.63;5018639;28;20032;-74
2022/12/20 02:51:25;;;;;;;12.80;6.35;;;;;;;-3.53;69.34;100488.53;5021551;28;20048;-72
2022/12/20 02:53:49;;;;;;;11.43;5.72;;;;;;;-3.40;70.39;100485.03;5044861;28;20036;-71
2022/12/20 02:56:32;;;;;;;12.60;6.50;;;;;;;-3.39;69.69;100483.31;5014160;28;20190;-71
2022/12/20 02:59:20;;;;;;;13.13;6.63;;;;;;;-3.27;70.80;100478.03;5012876;28;20048;-72
2022/12/20 03:01:48;;;;;;;13.40;6.50;;;;;;;-3.43;70.02;100476.34;5029427;28;20048;-73
2022/12/20 03:04:14;;;;;;;11.98;6.30;;;;;;;-3.59;68.93;100477.22;5014894;28;20492;-70
2022/12/20 03:06:54;;;;;;;12.60;6.38;;;;;;;-3.53;69.68;100479.84;5016656;28;20036;-72
2022/12/20 03:09:19;;;;;;;16.30;7.90;;;;;;;-3.80;68.57;100463.34;5016872;28;20046;-72
2022/12/20 03:11:43;;;;;;;13.52;6.75;;;;;;;-3.54;70.71;100463.34;5022934;28;20041;-76
2022/12/20 03:14:08;;;;;;;12.05;7.25;;;;;;;-3.61;71.02;100472.00;5026721;28;20054;-72
2022/12/20 03:16:34;;;;;;;15.30;7.85;;;;;;;-3.59;70.47;100457.25;5039468;28;20065;-72
2022/12/20 03:18:58;;;;;;;12.57;6.35;;;;;;;-3.55;70.42;100456.38;5022526;28;20133;-71
2022/12/20 03:21:23;;;;;;;12.73;7.47;;;;;;;-3.65;68.99;100439.03;5004281;28;20493;-72
2022/12/20 03:23:48;;;;;;;15.73;7.60;;;;;;;-3.67;68.30;100452.06;5001866;28;20561;-71
2022/12/20 03:26:12;;;;;;;16.90;8.75;;;;;;;-3.91;67.71;100446.88;5015743;28;20492;-73
2022/12/20 03:28:41;;;;;;;19.48;9.57;;;;;;;-3.92;67.65;100454.66;5019956;28;20093;-74
2022/12/20 03:31:09;;;;;;;14.68;8.18;;;;;;;-3.78;68.32;100447.72;5018732;28;20047;-72
2022/12/20 03:33:41;;;;;;;14.45;8.25;;;;;;;-3.64;69.06;100439.91;5003581;28;20062;-75
2022/12/20 03:36:06;;;;;;;15.75;8.32;;;;;;;-3.87;66.50;100438.19;5013590;28;20059;-74
2022/12/20 03:38:31;;;;;;;16.05;8.55;;;;;;;-3.78;67.00;100438.19;5008459;28;20069;-75
2022/12/20 03:40:56;;;;;;;13.32;7.85;;;;;;;-3.70;67.59;100431.22;5018320;28;20040;-73
2022/12/20 03:43:21;;;;;;;16.45;8.23;;;;;;;-3.80;66.54;100432.09;5002749;28;20052;-74
2022/12/20 03:45:46;;;;;;;15.00;7.95;;;;;;;-3.96;65.46;100427.78;5000952;28;20040;-71
2022/12/20 03:48:10;;;;;;;16.35;8.48;;;;;;;-4.15;65.29;100432.09;5027364;28;20037;-74
2022/12/20 03:50:36;;;;;;;13.98;8.73;;;;;;;-4.14;65.07;100420.81;5015851;28;20093;-65
2022/12/20 03:53:01;;;;;;;14.98;8.27;;;;;;;-4.05;65.95;100422.56;4996232;28;20049;-66
2022/12/20 03:55:25;;;;;;;19.70;9.88;;;;;;;-4.42;64.05;100408.66;5027049;28;20039;-66
2022/12/20 03:57:50;;;;;;;19.23;8.68;;;;;;;-4.37;64.35;100404.31;5033026;28;20044;-67
2022/12/20 04:00:28;;;;;;;22.70;9.65;;;;;;;-4.24;64.99;100400.88;5001372;28;20045;-65
2022/12/20 04:03:10;;;;;;;12.75;6.63;;;;;;;-4.21;66.26;100400.88;5019341;28;20052;-66
2022/12/20 04:05:34;;;;;;;23.98;11.98;;;;;;;-4.48;65.24;100396.50;4988111;28;20048;-65
2022/12/20 04:07:59;;;;;;;14.48;7.93;;;;;;;-4.18;67.21;100384.38;4982276;28;20040;-67
2022/12/20 04:10:24;;;;;;;17.75;8.95;;;;;;;-4.34;66.04;100387.84;5033985;28;20177;-66
2022/12/20 04:12:49;;;;;;;17.73;9.30;;;;;;;-4.44;64.93;100376.56;5018271;28;20044;-66
2022/12/20 04:15:16;;;;;;;19.33;11.20;;;;;;;-4.46;65.26;100370.50;5018321;28;20123;-64
2022/12/20 04:17:42;;;;;;;21.15;10.90;;;;;;;-4.69;64.28;100364.38;5035160;28;20044;-65
2022/12/20 04:20:17;;;;;;;19.33;9.55;;;;;;;-4.30;67.68;100356.63;5035326;28;20059;-64
2022/12/20 04:22:46;;;;;;;17.63;9.07;;;;;;;-4.12;68.50;100354.00;5022371;28;20067;-64
2022/12/20 04:25:10;;;;;;;19.95;9.70;;;;;;;-4.65;64.33;100353.13;5035536;28;20595;-65
2022/12/20 04:27:37;;;;;;;18.60;9.82;;;;;;;-4.55;65.21;100347.06;5004583;28;20044;-64
2022/12/20 04:30:05;;;;;;;26.08;12.45;;;;;;;-4.62;64.91;100353.13;4999103;28;20036;-66
2022/12/20 04:32:30;;;;;;;23.10;8.65;;;;;;;-4.59;64.56;100358.34;4999102;28;20047;-64
2022/12/20 04:34:55;;;;;;;17.80;9.07;;;;;;;-4.62;64.99;100350.50;5013578;28;20048;-64
2022/12/20 04:37:20;;;;;;;22.23;9.85;;;;;;;-4.92;63.56;100352.22;5000834;28;20477;-65
2022/12/20 04:39:50;;;;;;;16.52;8.25;;;;;;;-4.59;65.63;100366.13;5004080;28;20131;-67
2022/12/20 04:42:25;;;;;;;19.55;10.57;;;;;;;-4.64;63.80;100360.06;5016668;28;20122;-66
2022/12/20 04:44:52;;;;;;;19.38;9.32;;;;;;;-4.35;67.19;100354.88;5034550;28;20044;-67
2022/12/20 04:47:22;;;;;;;19.98;9.40;;;;;;;-4.63;63.64;100362.69;5012870;28;20096;-68
2022/12/20 04:49:46;;;;;;;18.20;9.13;;;;;;;-4.44;66.06;100350.53;5009206;28;20538;-68
2022/12/20 04:54:54;;;;;;;17.38;8.25;;;;;;;-4.47;64.04;100355.75;5000675;28;20056;-66
2022/12/20 04:57:24;;;;;;;18.80;10.05;;;;;;;-4.45;65.47;100344.47;5017603;28;20502;-66
2022/12/20 04:59:48;;;;;;;20.38;10.07;;;;;;;-4.63;63.10;100356.63;5007423;28;20420;-67
2022/12/20 05:02:13;;;;;;;21.92;10.45;;;;;;;-5.03;62.34;100343.53;5013116;28;20055;-67
2022/12/20 05:05:00;;;;;;;18.25;8.50;;;;;;;-4.94;63.01;100334.88;5026670;28;20036;-67
2022/12/20 05:07:25;;;;;;;20.67;8.77;;;;;;;-4.88;63.63;100346.16;5017168;28;20551;-67
2022/12/20 05:09:52;;;;;;;17.25;8.18;;;;;;;-4.95;63.08;100335.72;5000207;28;20395;-66
2022/12/20 05:12:17;;;;;;;17.60;11.05;;;;;;;-5.12;62.19;100326.19;5033656;28;20457;-66
2022/12/20 05:14:42;;;;;;;16.92;9.23;;;;;;;-4.86;65.88;100327.97;5017238;28;20033;-66
2022/12/20 05:17:08;;;;;;;15.32;7.50;;;;;;;-4.58;68.17;100326.25;5004459;28;20523;-66
2022/12/20 05:19:33;;;;;;;16.55;8.85;;;;;;;-4.68;67.11;100321.91;5025259;28;20389;-67
2022/12/20 05:27:40;;;;;;;11.90;6.97;;;;;;;-4.80;65.41;100321.03;5016206;28;20052;-64
2022/12/20 05:30:05;;;;;;;16.05;9.00;;;;;;;-4.95;63.34;100313.19;4996952;28;20044;-66
2022/12/20 05:32:30;;;;;;;13.73;7.60;;;;;;;-5.05;63.79;100313.19;5006942;28;20043;-66
2022/12/20 05:34:55;;;;;;;19.08;8.70;;;;;;;-4.94;64.59;100319.25;4999112;28;20033;-65
2022/12/20 05:37:20;;;;;;;17.90;8.05;;;;;;;-5.09;62.73;100316.66;5017038;28;20402;-66
2022/12/20 05:39:45;;;;;;;16.40;8.50;;;;;;;-4.99;64.42;100298.47;5016813;28;20470;-66
2022/12/20 05:42:15;;;;;;;16.63;8.93;;;;;;;-4.99;64.74;100295.88;5033425;28;20097;-67
2022/12/20 05:44:40;;;;;;;13.15;7.80;;;;;;;-5.41;63.11;100299.22;5002842;28;20052;-67
2022/12/20 05:47:06;;;;;;;18.23;7.57;;;;;;;-5.31;63.20;100290.63;5013678;28;20494;-65
2022/12/20 05:49:33;;;;;;;14.10;7.50;;;;;;;-5.22;64.02;100293.22;4990589;28;20051;-65
2022/12/20 05:52:01;;;;;;;18.80;8.30;;;;;;;-5.42;63.51;100281.06;5015201;28;20487;-66
2022/12/20 05:54:26;;;;;;;16.70;7.90;;;;;;;-5.36;63.28;100276.72;5033106;28;20048;-66
2022/12/20 05:56:56;;;;;;;15.25;8.93;;;;;;;-5.44;62.29;100280.19;5033224;28;20044;-66
2022/12/20 05:59:29;;;;;;;15.55;7.75;;;;;;;-5.19;64.28;100277.63;4999689;28;20185;-66
2022/12/20 06:01:54;;;;;;;15.27;6.90;;;;;;;-5.07;64.26;100284.56;5003121;28;20060;-66
2022/12/20 06:04:21;;;;;;;13.15;6.93;;;;;;;-5.24;62.89;100273.28;5015783;28;20136;-66
2022/12/20 06:06:46;;;;;;;18.92;7.63;;;;;;;-5.23;63.52;100275.03;5016382;28;20127;-66
2022/12/20 06:09:15;;;;;;;13.13;7.15;;;;;;;-5.23;64.22;100267.25;4998636;28;20052;-67
2022/12/20 06:11:46;;;;;;;13.32;7.15;;;;;;;-5.23;64.11;100273.31;4996348;28;20041;-67
2022/12/20 06:14:12;;;;;;;18.80;9.23;;;;;;;-5.62;62.04;100268.84;5011812;28;20157;-66
2022/12/20 06:16:41;;;;;;;16.65;7.40;;;;;;;-5.47;63.06;100282.75;5034318;28;20110;-67
2022/12/20 06:19:08;;;;;;;12.05;6.88;;;;;;;-5.30;63.39;100265.47;4983158;28;20048;-67
2022/12/20 06:21:33;;;;;;;14.77;7.63;;;;;;;-5.51;63.03;100268.88;5012852;28;20071;-68
2022/12/20 06:24:00;;;;;;;15.05;7.47;;;;;;;-5.37;63.30;100258.53;4996470;28;20049;-67
2022/12/20 06:26:25;;;;;;;13.60;7.85;;;;;;;-5.32;63.27;100259.44;5015225;28;20477;-68
2022/12/20 06:28:53;;;;;;;12.55;7.88;;;;;;;-5.38;62.18;100260.25;5016017;28;20047;-68
2022/12/20 06:31:33;;;;;;;12.43;6.43;;;;;;;-5.22;62.84;100258.56;5011202;28;20112;-69
2022/12/20 06:33:58;;;;;;;11.43;6.38;;;;;;;-5.43;62.07;100253.34;4999364;28;20147;-69
2022/12/20 06:36:30;;;;;;;13.10;6.45;;;;;;;-5.51;61.86;100251.56;5016755;28;20041;-68
2022/12/20 06:38:54;;;;;;;11.88;6.32;;;;;;;-5.28;63.24;100255.94;5018614;28;20109;-68
2022/12/20 06:41:19;;;;;;;11.15;5.63;;;;;;;-5.42;61.99;100249.88;5001792;28;20503;-67
2022/12/20 06:43:44;;;;;;;15.65;8.35;;;;;;;-5.33;62.32;100250.75;5020208;28;20486;-69
2022/12/20 06:46:09;;;;;;;12.25;6.07;;;;;;;-5.35;62.04;100241.22;5006383;28;20068;-69
2022/12/20 06:48:35;;;;;;;9.30;5.35;;;;;;;-5.18;62.51;100229.09;5002463;28;20417;-67
2022/12/20 06:50:59;;;;;;;11.02;4.97;;;;;;;-5.18;61.96;100223.91;5019833;28;20473;-69
2022/12/20 06:53:25;;;;;;;9.40;5.05;;;;;;;-5.12;62.15;100221.34;5003556;28;20565;-66
2022/12/20 06:55:50;;;;;;;11.20;6.10;;;;;;;-5.21;61.21;100217.00;5016683;28;20530;-67
2022/12/20 06:58:17;;;;;;;9.15;4.78;;;;;;;-4.98;63.75;100214.41;5001421;28;20044;-65
2022/12/20 07:00:43;;;;;;;8.57;5.13;;;;;;;-4.74;65.70;100200.53;5019819;28;20040;-66
2022/12/20 07:03:08;;;;;;;10.20;5.47;;;;;;;-4.72;65.49;100200.50;5042275;28;20059;-66
2022/12/20 07:05:33;;;;;;;11.15;5.53;;;;;;;-4.87;64.20;100191.00;5042303;28;20067;-67
2022/12/20 07:07:57;;;;;;;7.78;4.95;;;;;;;-5.14;62.14;100186.66;5040368;28;20051;-65
2022/12/20 07:10:22;;;;;;;6.47;3.70;;;;;;;-4.83;66.40;100178.00;5046955;28;20048;-65
2022/12/20 07:12:46;;;;;;;8.45;5.47;;;;;;;-5.21;63.02;100179.75;5037959;28;20094;-66
2022/12/20 07:15:11;;;;;;;11.18;5.72;;;;;;;-5.33;62.19;100178.00;5020254;28;20044;-67
2022/12/20 07:17:36;;;;;;;9.88;5.25;;;;;;;-5.23;65.16;100169.34;5019656;28;20051;-67
2022/12/20 07:20:00;;;;;;;9.25;4.85;;;;;;;-5.35;62.60;100169.34;5037395;28;20040;-66
2022/12/20 07:22:25;;;;;;;12.65;6.10;;;;;;;-5.58;61.92;100156.31;4983148;28;20507;-66
2022/12/20 07:24:49;;;;;;;11.13;5.22;;;;;;;-5.63;61.97;100162.34;5023278;28;20036;-66
2022/12/20 07:27:15;;;;;;;14.52;5.65;;;;;;;-5.46;63.66;100152.88;5002608;28;20044;-66
2022/12/20 07:29:40;;;;;;;13.57;6.60;;;;;;;-5.53;62.97;100149.38;5015941;28;20075;-66
2022/12/20 07:32:05;;;;;;;10.48;5.00;;;;;;;-5.46;64.49;100139.88;5008866;28;20076;-65
2022/12/20 07:34:30;;;;;;;11.38;5.55;;;;;;;-5.58;62.98;100134.69;5035472;28;20083;-65
2022/12/20 07:36:54;;;;;;;9.57;5.38;;;;;;;-5.47;64.10;100132.97;5019043;28;20509;-67
2022/12/20 07:39:19;;;;;;;9.45;5.65;;;;;;;-5.70;61.76;100127.72;5035800;28;20040;-66
2022/12/20 07:41:44;;;;;;;7.05;4.95;;;;;;;-5.50;63.21;100120.81;5018778;28;20054;-66
2022/12/20 07:44:13;;;;;;;9.35;4.30;;;;;;;-5.20;66.35;100112.19;5002307;28;20105;-67
2022/12/20 07:46:38;;;;;;;7.63;4.93;;;;;;;-5.50;63.59;100107.84;5036593;28;20044;-65
2022/12/20 07:49:04;;;;;;;8.73;5.20;;;;;;;-5.51;64.27;100108.69;5035293;28;20148;-66
2022/12/20 07:51:38;;;;;;;10.23;4.55;;;;;;;-5.31;66.48;100103.53;5006497;28;20044;-65
2022/12/20 07:54:17;;;;;;;14.07;5.75;;;;;;;-5.38;63.92;100098.31;5017909;28;20499;-67
2022/12/20 07:56:46;;;;;;;7.97;4.55;;;;;;;-5.35;63.33;100085.31;5032913;28;20079;-66
2022/12/20 07:59:13;;;;;;;11.50;4.30;;;;;;;-4.99;63.29;100081.81;5014040;28;20518;-67
2022/12/20 08:01:39;;;;;;;7.95;4.80;;;;;;;-4.10;62.47;100071.06;5039144;28;20044;-66
2022/12/20 08:04:10;;;;;;;11.27;5.32;;;;;;;-3.01;55.76;100068.47;5004516;28;20044;-69
2022/12/20 08:06:36;;;;;;;9.90;5.50;;;;;;;-2.11;54.66;100042.16;5015319;28;20106;-67
2022/12/20 08:09:04;;;;;;;10.73;5.22;;;;;;;-1.45;50.79;100042.03;5014268;28;20120;-67
2022/12/20 08:11:31;;;;;;;10.43;4.95;;;;;;;-1.18;49.16;100033.72;5036355;28;20040;-66
2022/12/20 08:13:56;;;;;;;10.93;5.78;;;;;;;-0.91;48.13;100034.97;5018219;28;20044;-66
2022/12/20 08:16:21;;;;;;;10.38;6.68;;;;;;;-0.59;48.39;100021.25;5036300;28;20036;-66
2022/12/20 08:18:46;;;;;;;9.50;4.95;;;;;;;-0.12;49.05;100022.00;5015056;28;20114;-65
2022/12/20 08:21:11;;;;;;;9.55;5.47;;;;;;;-0.04;49.30;100020.06;5016413;28;20057;-67
2022/12/20 08:23:36;;;;;;;11.23;6.22;;;;;;;-0.11;47.24;100026.31;5035089;28;20044;-66
2022/12/20 08:26:01;;;;;;;10.77;6.57;;;;;;;-0.09;45.04;100019.28;5036793;28;20234;-67
2022/12/20 08:28:26;;;;;;;11.63;6.18;;;;;;;0.09;48.28;100016.28;5002048;28;20097;-67
2022/12/20 08:30:51;;;;;;;12.18;5.03;;;;;;;0.28;49.70;100012.31;5018184;28;20041;-67
2022/12/20 08:33:15;;;;;;;8.88;4.90;;;;;;;0.29;46.30;100007.94;5036094;28;20040;-67
2022/12/20 08:35:40;;;;;;;12.63;5.72;;;;;;;0.30;44.84;100013.16;5036344;28;20051;-68
2022/12/20 08:38:04;;;;;;;7.00;4.25;;;;;;;0.64;45.82;100005.31;5002055;28;20044;-67
2022/12/20 08:40:29;;;;;;;6.85;3.78;;;;;;;0.90;44.76;99995.91;5011211;28;20047;-67
2022/12/20 08:42:54;;;;;;;10.27;5.07;;;;;;;0.50;45.43;99991.66;5031965;28;20148;-66
2022/12/20 08:45:18;;;;;;;8.18;4.40;;;;;;;0.16;46.29;99983.78;5036456;28;20051;-65
2022/12/20 08:47:43;;;;;;;9.45;4.78;;;;;;;-0.46;46.38;99998.31;5001649;28;20106;-65
2022/12/20 08:50:08;;;;;;;8.27;4.68;;;;;;;-0.41;46.75;99984.19;5036259;28;20044;-66
2022/12/20 08:52:33;;;;;;;7.65;4.80;;;;;;;-0.45;44.76;99974.66;5001228;28;20044;-65
2022/12/20 08:54:58;;;;;;;9.82;4.53;;;;;;;-0.15;46.42;99965.28;5035425;28;20042;-65
2022/12/20 08:57:23;;;;;;;8.88;4.72;;;;;;;-0.19;45.43;99968.00;5017410;28;20037;-65
2022/12/20 08:59:47;;;;;;;7.95;4.53;;;;;;;-0.66;45.42;99963.78;4991095;28;20047;-64
2022/12/20 09:02:12;;;;;;;9.82;4.43;;;;;;;-0.71;46.25;99956.06;5017175;28;20491;-66
2022/12/20 09:04:37;;;;;;;7.25;4.28;;;;;;;-0.66;46.30;99950.69;5013951;28;20115;-66
2022/12/20 09:07:02;;;;;;;9.63;4.95;;;;;;;-1.13;45.35;99939.47;5029076;28;20068;-65
2022/12/20 09:09:26;;;;;;;8.82;5.15;;;;;;;-1.36;46.65;99925.97;4998335;28;20071;-66
2022/12/20 09:11:51;;;;;;;7.13;4.00;;;;;;;-1.06;49.88;99934.97;5005914;28;20110;-66
2022/12/20 09:14:17;;;;;;;6.50;4.13;;;;;;;-1.63;48.48;99933.41;5032448;28;20082;-65
2022/12/20 09:16:42;;;;;;;9.13;5.10;;;;;;;-1.92;48.51;99927.84;5026294;28;20076;-65
2022/12/20 09:19:06;;;;;;;7.70;4.40;;;;;;;-1.83;48.79;99931.16;5028869;28;20503;-65
2022/12/20 09:21:33;;;;;;;7.03;2.92;;;;;;;-1.34;49.70;99925.03;5034998;28;20511;-66
2022/12/20 09:23:57;;;;;;;8.32;5.10;;;;;;;-0.83;46.18;99924.91;4984057;28;20048;-66
2022/12/20 09:26:23;;;;;;;4.82;3.20;;;;;;;0.02;49.35;99922.09;5021119;28;20047;-66
2022/12/20 09:28:48;;;;;;;6.38;3.97;;;;;;;-0.26;45.28;99908.78;5028287;28;20517;-65
2022/12/20 09:31:18;;;;;;;8.25;4.13;;;;;;;-0.35;46.04;99909.00;5000979;28;20086;-65
2022/12/20 09:33:43;;;;;;;7.90;4.68;;;;;;;-0.31;46.18;99901.03;5014119;28;20063;-66
2022/12/20 09:36:18;;;;;;;7.20;4.35;;;;;;;-0.09;46.07;99898.75;5024839;28;20127;-66
2022/12/20 09:38:44;;;;;;;9.82;4.00;;;;;;;0.03;46.43;99893.22;5035055;28;20032;-66
2022/12/20 09:41:23;;;;;;;7.30;4.25;;;;;;;0.07;46.20;99889.63;5036818;28;20392;-67
2022/12/20 09:43:49;;;;;;;10.93;4.43;;;;;;;0.03;46.30;99885.34;5035886;28;20047;-67
2022/12/20 09:46:15;;;;;;;7.70;4.22;;;;;;;0.08;47.94;99874.75;5034575;28;20384;-67
2022/12/20 09:48:39;;;;;;;7.80;4.50;;;;;;;-0.23;45.91;99866.81;5032581;28;20051;-67
2022/12/20 09:51:25;;;;;;;9.43;4.60;;;;;;;-0.21;46.04;99862.38;5017893;28;20033;-68
2022/12/20 09:54:10;;;;;;;10.27;4.00;;;;;;;-0.29;46.25;99861.69;5016863;28;20128;-68
2022/12/20 09:56:40;;;;;;;6.15;3.70;;;;;;;-0.40;47.86;99859.34;5036278;28;20384;-66
2022/12/20 09:59:11;;;;;;;6.82;4.07;;;;;;;-0.75;48.30;99853.16;5014611;28;20416;-67
2022/12/20 10:01:36;;;;;;;5.93;3.70;;;;;;;-0.93;48.53;99840.50;4999994;28;20384;-67
2022/12/20 10:04:20;;;;;;;7.25;4.22;;;;;;;-1.10;47.62;99840.84;5036945;28;20578;-66
2022/12/20 10:07:19;;;;;;;9.40;4.75;;;;;;;-1.03;46.58;99830.25;4997320;28;20045;-66
2022/12/20 10:09:56;;;;;;;6.75;3.85;;;;;;;-0.82;49.15;99822.78;5023917;28;20102;-69
2022/12/20 10:12:41;;;;;;;7.85;4.25;;;;;;;-1.01;47.94;99818.84;5018598;28;20051;-73
2022/12/20 10:15:23;;;;;;;8.15;4.30;;;;;;;-1.12;46.38;99812.97;5039169;28;20048;-72
2022/12/20 10:18:10;;;;;;;6.05;4.00;;;;;;;-1.48;47.62;99794.56;5041309;28;20410;-75
2022/12/20 10:20:36;;;;;;;8.77;4.53;;;;;;;-1.35;48.33;99789.06;5009717;28;20403;-73
2022/12/20 10:23:16;;;;;;;5.40;3.85;;;;;;;-0.98;49.40;99789.13;5003834;28;20041;-75
2022/12/20 10:25:42;;;;;;;9.10;6.05;;;;;;;-1.13;48.46;99793.81;5027968;28;20037;-72
2022/12/20 10:28:14;;;;;;;6.70;4.22;;;;;;;-1.15;47.03;99790.38;5037793;28;20098;-74
2022/12/20 10:30:40;;;;;;;6.65;4.07;;;;;;;-1.58;48.56;99798.25;5040955;28;20044;-72
2022/12/20 10:33:04;;;;;;;11.77;5.05;;;;;;;-1.75;48.37;99794.25;5040684;28;20911;-72
2022/12/20 10:35:39;;;;;;;8.32;4.68;;;;;;;-1.80;49.89;99785.63;5016574;28;20559;-73
2022/12/20 10:38:05;;;;;;;;;;;;;;;-1.59;53.13;99783.47;5006270;28;20090;-72
2022/12/20 10:40:36;;;;;;;11.57;5.70;;;;;;;-2.14;50.35;99774.97;5040919;28;19974;-72
2022/12/20 10:43:03;;;;;;;7.22;4.47;;;;;;;-2.36;50.52;99780.53;5023736;28;20036;-73
2022/12/20 10:45:35;;;;;;;9.15;5.57;;;;;;;-2.56;50.84;99775.66;5020143;28;20036;-72
2022/12/20 10:48:02;;;;;;;4.85;3.60;;;;;;;-2.42;53.04;99779.81;5012797;28;20036;-72
2022/12/20 10:50:27;;;;;;;6.82;4.03;;;;;;;-2.51;52.74;99769.53;5004085;28;20106;-71
2022/12/20 10:53:11;;;;;;;10.13;4.72;;;;;;;-2.39;52.82;99762.34;5029726;28;20037;-72
2022/12/20 10:55:41;;;;;;;8.13;4.32;;;;;;;-2.60;51.94;99765.31;5025019;28;20044;-71
2022/12/20 10:58:30;;;;;;;7.28;4.32;;;;;;;-2.51;51.37;99764.31;5011589;28;20045;-71
2022/12/20 11:01:14;;;;;;;7.57;4.65;;;;;;;-2.51;51.18;99759.09;5020672;28;20044;-71
2022/12/20 11:04:06;;;;;;;9.32;4.60;;;;;;;-2.41;52.38;99758.91;5020301;28;20037;-71
2022/12/20 11:06:37;;;;;;;9.38;4.43;;;;;;;-2.52;51.64;99765.19;5027132;28;20060;-71
2022/12/20 11:09:26;;;;;;;7.60;4.35;;;;;;;-2.58;52.03;99761.78;5031263;28;20112;-72
2022/12/20 11:12:14;;;;;;;6.72;4.05;;;;;;;-2.44;51.33;99758.06;5010043;28;20104;-73
2022/12/20 11:14:40;;;;;;;8.80;4.63;;;;;;;-2.40;52.48;99764.97;5018137;28;20235;-67
2022/12/20 11:17:51;;;;;;;8.93;4.63;;;;;;;-2.40;52.85;99758.00;5016888;28;20454;-67
2022/12/20 11:20:37;;;;;;;8.32;4.40;;;;;;;-2.36;52.89;99757.03;5013724;28;20052;-66
2022/12/20 11:23:08;;;;;;;6.65;4.07;;;;;;;-2.46;52.10;99765.94;4998729;28;20083;-65
2022/12/20 11:25:43;;;;;;;7.22;4.10;;;;;;;-2.36;52.82;99751.81;5015611;28;20037;-65
2022/12/20 11:28:29;;;;;;;7.78;4.47;;;;;;;-2.41;54.25;99738.00;5018813;28;20086;-71
2022/12/20 11:31:28;;;;;;;6.60;4.28;;;;;;;-2.68;52.36;99734.13;5014602;28;20036;-72
2022/12/20 11:34:34;;;;;;;6.25;4.25;;;;;;;-2.84;54.40;99742.22;4998007;28;20090;-70
2022/12/20 11:37:14;;;;;;;7.90;4.28;;;;;;;-3.28;52.63;99742.91;4998583;28;20036;-74
2022/12/20 11:40:06;;;;;;;6.55;3.88;;;;;;;-3.46;53.40;99744.84;5019680;28;20048;-72
2022/12/20 11:43:09;;;;;;;8.40;4.40;;;;;;;-3.27;55.88;99731.59;5019170;28;20040;-70